Westpoint, Indiana
Current Conditions -  °F | °C
As of 10:54 AM on Monday 22 Dec 2014 (Local Time) from KLAF Reporting Station
Overcast Overcast  
Wind Chill: 32°   Ceiling: 2700
Heat Index: 36°   Visibility: 8mi
Dew Point: 31°   Wind: 5mph
Humidity: 82%   Direction: 130°SE
Pressure: 29.92"   Gusts: NA
Location:  40.34°N, 87.04°W
Report Text: KLAF 221554Z 13004KT 8SM OVC027 02/M01 A2992 RMK AO2 SLP136 T00221006
Loading
Personal Weather Stations






























Interactive Weather Map New forecast layout! Learn more

10-Day Weather Forecast

Advertisements
Track Severe Weather on mobile